createdAt,value
2022-12-19T00:02:00.086Z,6.87
2022-12-19T00:04:28.148Z,6.33
2022-12-19T00:06:58.699Z,7.30
2022-12-19T00:09:27.313Z,7.70
2022-12-19T00:11:55.430Z,7.60
2022-12-19T00:14:23.348Z,8.20
2022-12-19T00:16:51.301Z,7.23
2022-12-19T00:19:21.212Z,7.73
2022-12-19T00:21:49.141Z,8.93
2022-12-19T00:24:21.083Z,9.47
2022-12-19T00:26:50.129Z,9.27
2022-12-19T00:29:18.155Z,10.03
2022-12-19T00:31:46.174Z,9.63
2022-12-19T00:34:14.144Z,10.30
2022-12-19T00:36:43.709Z,9.87
2022-12-19T00:39:11.941Z,10.47
2022-12-19T00:41:42.512Z,10.77
2022-12-19T00:44:17.205Z,9.50
2022-12-19T00:46:47.142Z,9.97
2022-12-19T00:49:21.000Z,10.40
2022-12-19T00:51:50.359Z,9.47
2022-12-19T00:54:18.349Z,10.30
2022-12-19T00:56:46.307Z,9.90
2022-12-19T00:59:14.343Z,10.27
2022-12-19T01:01:44.615Z,10.47
2022-12-19T01:04:32.589Z,11.07
2022-12-19T01:07:05.803Z,10.43
2022-12-19T01:09:35.338Z,10.80
2022-12-19T01:12:21.035Z,10.80
2022-12-19T01:14:54.079Z,10.37
2022-12-19T01:17:24.114Z,10.83
2022-12-19T01:19:52.046Z,11.23
2022-12-19T01:22:21.368Z,10.90
2022-12-19T01:24:49.319Z,11.27
2022-12-19T01:27:17.328Z,10.50
2022-12-19T01:29:52.699Z,11.03
2022-12-19T01:32:21.446Z,10.30
2022-12-19T01:34:49.424Z,11.10
2022-12-19T01:37:21.719Z,11.80
2022-12-19T01:39:49.741Z,11.17
2022-12-19T01:42:20.269Z,11.73
2022-12-19T01:45:32.026Z,11.83
2022-12-19T01:48:08.238Z,11.73
2022-12-19T01:50:40.793Z,11.57
2022-12-19T01:53:15.859Z,11.53
2022-12-19T01:55:45.453Z,11.40
2022-12-19T01:58:14.619Z,10.93
2022-12-19T02:00:44.386Z,12.03
2022-12-19T02:03:17.669Z,11.53
2022-12-19T02:05:46.658Z,12.10
2022-12-19T02:08:16.064Z,11.37
2022-12-19T02:10:44.103Z,10.70
2022-12-19T02:13:12.567Z,11.20
2022-12-19T02:15:47.594Z,12.53
2022-12-19T02:18:25.698Z,11.20
2022-12-19T02:21:18.751Z,10.70
2022-12-19T02:24:21.126Z,9.93
2022-12-19T02:27:27.509Z,11.97
2022-12-19T02:30:11.206Z,10.77
2022-12-19T02:32:56.944Z,9.73
2022-12-19T02:35:32.215Z,11.00
2022-12-19T02:38:13.260Z,12.20
2022-12-19T02:40:46.139Z,11.67
2022-12-19T02:43:18.951Z,10.27
2022-12-19T02:45:49.039Z,11.77
2022-12-19T02:48:19.682Z,10.40
2022-12-19T02:50:50.317Z,10.90
2022-12-19T02:53:23.547Z,10.87
2022-12-19T02:55:59.198Z,10.37
2022-12-19T02:58:47.838Z,11.37
2022-12-19T03:01:25.823Z,10.80
2022-12-19T03:04:06.404Z,11.03
2022-12-19T03:06:41.576Z,10.80
2022-12-19T03:09:17.351Z,10.00
2022-12-19T03:11:48.018Z,10.67
2022-12-19T03:14:19.441Z,13.33
2022-12-19T03:16:47.676Z,11.17
2022-12-19T03:19:17.863Z,12.13
2022-12-19T03:21:50.375Z,11.97
2022-12-19T03:24:19.786Z,11.97
2022-12-19T03:26:53.129Z,12.07
2022-12-19T03:29:27.010Z,10.57
2022-12-19T03:31:56.330Z,10.77
2022-12-19T03:34:29.485Z,11.40
2022-12-19T03:37:02.386Z,11.83
2022-12-19T03:39:32.670Z,10.90
2022-12-19T03:42:20.575Z,11.23
2022-12-19T03:44:51.590Z,11.10
2022-12-19T03:47:24.766Z,11.00
2022-12-19T03:49:54.621Z,10.70
2022-12-19T03:52:30.015Z,11.20
2022-12-19T03:55:05.756Z,10.63
2022-12-19T03:57:38.980Z,10.73
2022-12-19T04:00:09.869Z,11.37
2022-12-19T04:02:40.095Z,11.10
2022-12-19T04:05:16.629Z,11.50
2022-12-19T04:07:46.134Z,12.50
2022-12-19T04:10:18.966Z,10.93
2022-12-19T04:12:51.254Z,12.00
2022-12-19T04:15:21.630Z,10.93
2022-12-19T04:17:53.432Z,11.13
2022-12-19T04:20:26.189Z,10.83
2022-12-19T04:22:59.701Z,11.10
2022-12-19T04:25:31.167Z,11.20
2022-12-19T04:28:03.692Z,10.13
2022-12-19T04:30:36.853Z,11.07
2022-12-19T04:33:05.144Z,10.77
2022-12-19T04:35:37.549Z,10.53
2022-12-19T04:38:05.806Z,11.50
2022-12-19T04:40:40.973Z,11.43
2022-12-19T04:43:09.905Z,9.93
2022-12-19T04:45:38.217Z,11.17
2022-12-19T04:48:07.645Z,11.40
2022-12-19T04:50:38.463Z,10.83
2022-12-19T04:53:07.534Z,11.53
2022-12-19T04:55:35.558Z,11.70
2022-12-19T04:58:06.861Z,10.53
2022-12-19T05:00:34.937Z,11.10
2022-12-19T05:03:03.179Z,11.40
2022-12-19T05:05:31.600Z,9.80
2022-12-19T05:08:00.977Z,11.17
2022-12-19T05:10:28.972Z,10.33
2022-12-19T05:12:56.951Z,10.67
2022-12-19T05:15:24.914Z,10.23
2022-12-19T05:17:52.922Z,11.53
2022-12-19T05:20:20.956Z,10.47
2022-12-19T05:22:48.980Z,10.77
2022-12-19T05:25:18.597Z,10.40
2022-12-19T05:27:46.558Z,10.70
2022-12-19T05:30:15.041Z,11.37
2022-12-19T05:32:43.049Z,11.00
2022-12-19T05:35:11.110Z,10.33
2022-12-19T05:37:39.105Z,9.53
2022-12-19T05:40:08.415Z,9.83
2022-12-19T05:42:37.817Z,9.83
2022-12-19T05:45:06.401Z,10.40
2022-12-19T05:47:34.425Z,9.37
2022-12-19T05:50:02.504Z,9.93
2022-12-19T05:52:30.481Z,10.33
2022-12-19T05:54:58.553Z,11.43
2022-12-19T05:57:27.104Z,11.40
2022-12-19T05:59:56.497Z,11.43
2022-12-19T06:02:24.819Z,9.70
2022-12-19T06:04:53.085Z,10.47
2022-12-19T06:07:21.516Z,10.83
2022-12-19T06:09:49.635Z,10.07
2022-12-19T06:12:17.857Z,10.33
2022-12-19T06:14:45.862Z,10.27
2022-12-19T06:17:15.287Z,10.93
2022-12-19T06:19:43.274Z,10.07
2022-12-19T06:22:17.229Z,10.33
2022-12-19T06:24:45.188Z,9.50
2022-12-19T06:27:13.258Z,10.77
2022-12-19T06:29:41.245Z,10.57
2022-12-19T06:32:09.250Z,10.73
2022-12-19T06:37:26.631Z,9.87
2022-12-19T06:39:54.707Z,10.57
2022-12-19T06:42:24.497Z,10.97
2022-12-19T06:44:54.169Z,10.23
2022-12-19T06:47:24.043Z,10.00
2022-12-19T06:49:53.479Z,9.70
2022-12-19T06:52:22.369Z,11.13
2022-12-19T06:54:50.422Z,11.60
2022-12-19T06:57:18.581Z,12.03
2022-12-19T06:59:46.645Z,10.70
2022-12-19T07:02:23.902Z,10.57
2022-12-19T07:04:58.889Z,9.70
2022-12-19T07:07:26.948Z,11.70
2022-12-19T07:09:54.997Z,11.37
2022-12-19T07:12:23.040Z,11.33
2022-12-19T07:14:53.527Z,11.30
2022-12-19T07:17:23.429Z,11.40
2022-12-19T07:19:58.319Z,11.33
2022-12-19T07:22:30.300Z,10.87
2022-12-19T07:24:58.782Z,11.83
2022-12-19T07:27:35.234Z,12.33
2022-12-19T07:30:04.846Z,12.20
2022-12-19T07:32:33.033Z,12.67
2022-12-19T07:35:02.637Z,12.03
2022-12-19T07:37:30.858Z,12.03
2022-12-19T07:39:58.876Z,12.70
2022-12-19T07:42:32.295Z,11.83
2022-12-19T07:45:01.453Z,11.57
2022-12-19T07:47:29.493Z,12.30
2022-12-19T07:49:57.517Z,12.90
2022-12-19T07:52:26.975Z,11.93
2022-12-19T07:54:55.234Z,13.63
2022-12-19T07:57:23.366Z,17.77
2022-12-19T07:59:51.356Z,17.77
2022-12-19T08:02:19.524Z,18.13
2022-12-19T08:04:47.586Z,14.70
2022-12-19T08:07:15.810Z,13.27
2022-12-19T08:09:45.438Z,12.83
2022-12-19T08:12:13.567Z,11.40
2022-12-19T08:14:41.581Z,12.83
2022-12-19T08:17:25.290Z,13.73
2022-12-19T08:19:53.359Z,12.63
2022-12-19T08:22:21.441Z,13.00
2022-12-19T08:24:51.042Z,11.40
2022-12-19T08:27:19.117Z,12.57
2022-12-19T08:29:47.530Z,11.60
2022-12-19T08:32:20.893Z,12.03
2022-12-19T08:34:49.542Z,13.47
2022-12-19T08:37:17.743Z,12.83
2022-12-19T08:39:45.856Z,11.60
2022-12-19T08:42:15.299Z,11.63
2022-12-19T08:44:43.314Z,11.67
2022-12-19T08:47:11.305Z,13.40
2022-12-19T08:49:39.371Z,11.47
2022-12-19T08:52:07.379Z,12.87
2022-12-19T08:54:35.536Z,12.30
2022-12-19T08:57:03.538Z,12.80
2022-12-19T08:59:32.920Z,12.67
2022-12-19T09:02:02.293Z,11.27
2022-12-19T09:05:58.358Z,12.20
2022-12-19T09:07:19.515Z,12.37
2022-12-19T09:09:47.820Z,13.50
2022-12-19T09:12:17.187Z,11.77
2022-12-19T09:14:46.718Z,11.93
2022-12-19T09:17:14.906Z,13.07
2022-12-19T09:19:47.460Z,13.10
2022-12-19T09:22:17.024Z,12.43
2022-12-19T09:24:45.360Z,12.77
2022-12-19T09:27:13.401Z,12.93
2022-12-19T09:29:42.504Z,12.67
2022-12-19T09:32:12.267Z,12.10
2022-12-19T09:34:40.450Z,12.97
2022-12-19T09:37:15.142Z,13.50
2022-12-19T09:39:46.125Z,15.03
2022-12-19T09:42:40.949Z,14.57
2022-12-19T09:45:32.097Z,13.60
2022-12-19T09:48:03.651Z,14.07
2022-12-19T09:50:49.170Z,14.37
2022-12-19T09:53:24.385Z,13.47
2022-12-19T09:55:53.811Z,12.97
2022-12-19T09:58:32.471Z,12.87
2022-12-19T10:01:03.766Z,13.37
2022-12-19T10:03:40.072Z,13.13
2022-12-19T10:07:09.440Z,10.40
2022-12-19T10:11:16.768Z,13.23
2022-12-19T10:12:45.128Z,12.57
2022-12-19T10:15:20.919Z,13.60
2022-12-19T10:18:17.675Z,13.57
2022-12-19T10:20:56.061Z,13.73
2022-12-19T10:23:54.270Z,13.63
2022-12-19T10:26:30.210Z,14.47
2022-12-19T10:29:18.607Z,16.07
2022-12-19T10:31:54.093Z,17.03
2022-12-19T10:34:24.198Z,14.37
2022-12-19T10:37:24.474Z,14.40
2022-12-19T10:39:54.327Z,12.50
2022-12-19T10:42:31.376Z,15.07
2022-12-19T10:45:02.735Z,14.23
2022-12-19T10:47:31.193Z,14.73
2022-12-19T10:50:03.984Z,14.40
2022-12-19T10:52:57.514Z,14.07
2022-12-19T10:55:44.622Z,12.47
2022-12-19T10:58:25.346Z,12.90
2022-12-19T11:01:12.891Z,13.80
2022-12-19T11:03:43.234Z,17.20
2022-12-19T11:06:49.889Z,13.93
2022-12-19T11:09:23.000Z,13.17
2022-12-19T11:16:01.420Z,12.77
2022-12-19T11:19:08.922Z,13.97
2022-12-19T11:27:44.013Z,12.50
2022-12-19T11:29:30.353Z,13.73
2022-12-19T11:29:40.888Z,11.63
2022-12-19T11:30:35.209Z,13.57
2022-12-19T11:30:37.770Z,12.90
2022-12-19T11:34:37.832Z,13.33
2022-12-19T11:37:17.087Z,13.90
2022-12-19T11:39:48.997Z,12.30
2022-12-19T11:42:24.189Z,11.43
2022-12-19T11:44:58.535Z,13.50
2022-12-19T11:47:34.802Z,12.30
2022-12-19T11:50:10.658Z,13.23
2022-12-19T11:55:40.636Z,13.30
2022-12-19T11:58:12.242Z,13.47
2022-12-19T12:00:44.868Z,11.47
2022-12-19T12:03:36.671Z,12.63
2022-12-19T12:06:11.489Z,13.13
2022-12-19T12:10:56.259Z,12.90
2022-12-19T12:20:06.114Z,12.30
2022-12-19T12:22:29.146Z,13.83
2022-12-19T12:31:01.973Z,13.03
2022-12-19T12:31:10.132Z,12.60
2022-12-19T12:31:42.784Z,12.43
2022-12-19T12:31:48.721Z,11.63
2022-12-19T12:32:04.538Z,12.97
2022-12-19T12:35:16.600Z,13.33
2022-12-19T12:38:48.446Z,12.93
2022-12-19T12:41:39.515Z,12.90
2022-12-19T12:44:12.020Z,14.57
2022-12-19T12:46:46.776Z,13.50
2022-12-19T12:49:31.522Z,12.77
2022-12-19T12:52:02.286Z,13.77
2022-12-19T12:54:34.755Z,14.07
2022-12-19T12:57:03.423Z,12.90
2022-12-19T12:59:32.791Z,13.53
2022-12-19T13:02:08.802Z,14.67
2022-12-19T13:04:43.180Z,13.53
2022-12-19T13:07:25.578Z,15.43
2022-12-19T13:10:07.065Z,13.17
2022-12-19T13:12:53.007Z,14.77
2022-12-19T13:15:37.459Z,14.47
2022-12-19T13:18:37.880Z,13.37
2022-12-19T13:21:09.579Z,15.00
2022-12-19T13:23:46.560Z,14.87
2022-12-19T13:26:46.015Z,14.40
2022-12-19T13:29:34.488Z,14.33
2022-12-19T13:32:14.336Z,14.77
2022-12-19T13:35:17.580Z,15.47
2022-12-19T13:40:00.637Z,14.63
2022-12-19T13:40:54.890Z,14.60
2022-12-19T13:43:43.792Z,13.67
2022-12-19T13:46:25.174Z,14.47
2022-12-19T13:48:57.269Z,14.10
2022-12-19T13:51:26.611Z,16.63
2022-12-19T13:53:59.612Z,15.60
2022-12-19T13:56:31.969Z,14.70
2022-12-19T13:59:02.489Z,15.27
2022-12-19T14:01:33.448Z,15.53
2022-12-19T14:04:08.115Z,15.20
2022-12-19T14:06:43.808Z,15.47
2022-12-19T14:11:27.677Z,15.13
2022-12-19T14:13:47.095Z,14.53
2022-12-19T14:15:33.387Z,15.17
2022-12-19T14:18:43.179Z,14.50
2022-12-19T14:22:04.136Z,14.73
2022-12-19T14:23:43.670Z,14.20
2022-12-19T14:28:18.107Z,14.70
2022-12-19T14:29:08.693Z,16.33
2022-12-19T14:31:39.818Z,15.17
2022-12-19T14:36:05.258Z,15.83
2022-12-19T14:39:20.871Z,15.57
2022-12-19T14:40:25.094Z,15.10
2022-12-19T14:44:00.162Z,15.10
2022-12-19T14:54:08.206Z,16.57
2022-12-19T14:54:14.084Z,15.07
2022-12-19T14:54:32.372Z,14.27
2022-12-19T14:56:03.726Z,14.93
2022-12-19T14:58:55.220Z,14.03
2022-12-19T15:01:27.345Z,15.40
2022-12-19T15:04:48.775Z,15.33
2022-12-19T15:07:06.901Z,14.63
2022-12-19T15:10:59.049Z,15.57
2022-12-19T15:14:51.381Z,15.10
2022-12-19T15:15:46.067Z,14.93
2022-12-19T15:18:21.296Z,15.37
2022-12-19T15:20:49.475Z,15.93
2022-12-19T15:23:22.048Z,14.87
2022-12-19T15:26:07.860Z,16.37
2022-12-19T15:28:41.975Z,15.30
2022-12-19T15:31:26.725Z,15.90
2022-12-19T15:36:42.826Z,14.77
2022-12-19T15:39:10.809Z,16.77
2022-12-19T15:41:38.814Z,15.90
2022-12-19T15:44:11.865Z,17.33
2022-12-19T15:46:46.407Z,16.80
2022-12-19T15:49:17.924Z,16.63
2022-12-19T15:51:46.360Z,15.40
2022-12-19T15:54:47.018Z,16.17
2022-12-19T15:57:02.444Z,15.97
2022-12-19T15:59:38.047Z,15.90
2022-12-19T16:02:16.982Z,15.77
2022-12-19T16:04:46.119Z,16.40
2022-12-19T16:07:17.044Z,15.80
2022-12-19T16:09:45.075Z,17.60
2022-12-19T16:12:16.516Z,16.43
2022-12-19T16:14:47.443Z,17.63
2022-12-19T16:17:21.049Z,17.27
2022-12-19T16:19:50.113Z,16.40
2022-12-19T16:22:20.003Z,17.40
2022-12-19T16:24:48.353Z,17.67
2022-12-19T16:27:23.432Z,16.37
2022-12-19T16:29:53.070Z,17.17
2022-12-19T16:32:23.027Z,16.63
2022-12-19T16:34:51.501Z,17.33
2022-12-19T16:37:19.522Z,15.90
2022-12-19T16:39:47.583Z,17.00
2022-12-19T16:42:17.182Z,18.10
2022-12-19T16:44:46.617Z,21.67
2022-12-19T16:47:17.891Z,22.70
2022-12-19T16:49:46.244Z,21.17
2022-12-19T16:52:14.250Z,18.40
2022-12-19T16:54:42.260Z,19.00
2022-12-19T16:57:19.340Z,17.13
2022-12-19T16:59:47.491Z,16.50
2022-12-19T17:02:38.530Z,17.77
2022-12-19T17:05:08.001Z,19.37
2022-12-19T17:07:36.597Z,18.50
2022-12-19T17:10:05.019Z,19.33
2022-12-19T17:12:33.052Z,17.90
2022-12-19T17:15:01.342Z,18.10
2022-12-19T17:17:30.644Z,19.37
2022-12-19T17:19:58.634Z,17.17
2022-12-19T17:22:26.606Z,17.63
2022-12-19T17:24:54.587Z,16.47
2022-12-19T17:27:23.356Z,18.43
2022-12-19T17:29:51.392Z,18.90
2022-12-19T17:32:23.907Z,19.30
2022-12-19T17:34:53.772Z,18.77
2022-12-19T17:37:22.118Z,18.93
2022-12-19T17:39:50.091Z,17.70
2022-12-19T17:42:25.467Z,17.17
2022-12-19T17:44:53.423Z,18.53
2022-12-19T17:47:21.884Z,18.83
2022-12-19T17:49:50.878Z,19.03
2022-12-19T17:52:21.122Z,18.40
2022-12-19T17:54:50.185Z,19.23
2022-12-19T17:57:19.420Z,19.23
2022-12-19T17:59:47.407Z,18.43
2022-12-19T18:02:21.555Z,17.77
2022-12-19T18:04:50.379Z,17.50
2022-12-19T18:07:20.632Z,18.67
2022-12-19T18:09:48.616Z,18.37
2022-12-19T18:12:16.636Z,18.40
2022-12-19T18:14:44.658Z,17.97
2022-12-19T18:17:14.437Z,17.43
2022-12-19T18:19:42.487Z,17.47
2022-12-19T18:22:13.861Z,18.40
2022-12-19T18:24:43.267Z,18.73
2022-12-19T18:27:12.112Z,18.17
2022-12-19T18:29:40.119Z,16.87
2022-12-19T18:32:10.468Z,17.53
2022-12-19T18:34:38.718Z,16.37
2022-12-19T18:37:06.748Z,17.27
2022-12-19T18:39:34.751Z,18.23
2022-12-19T18:42:10.832Z,16.90
2022-12-19T18:44:38.846Z,18.57
2022-12-19T18:47:07.670Z,17.67
2022-12-19T18:49:37.547Z,18.07
2022-12-19T18:52:05.850Z,17.23
2022-12-19T18:54:33.830Z,17.87
2022-12-19T18:57:03.190Z,16.43
2022-12-19T18:59:31.715Z,18.00
2022-12-19T19:02:00.279Z,17.03
2022-12-19T19:04:28.375Z,17.70
2022-12-19T19:06:56.355Z,17.07
2022-12-19T19:09:24.326Z,19.93
2022-12-19T19:11:52.318Z,18.17
2022-12-19T19:14:21.680Z,17.37
2022-12-19T19:16:49.860Z,17.27
2022-12-19T19:19:19.992Z,16.00
2022-12-19T19:21:48.002Z,18.43
2022-12-19T19:24:18.266Z,18.60
2022-12-19T19:26:46.276Z,17.23
2022-12-19T19:29:14.975Z,17.33
2022-12-19T19:31:48.613Z,16.70
2022-12-19T19:34:22.693Z,17.87
2022-12-19T19:36:55.885Z,18.27
2022-12-19T19:39:24.815Z,17.17
2022-12-19T19:41:53.608Z,17.33
2022-12-19T19:44:21.632Z,17.80
2022-12-19T19:46:51.228Z,17.30
2022-12-19T19:49:20.811Z,17.80
2022-12-19T19:51:48.797Z,17.60
2022-12-19T19:54:16.844Z,16.17
2022-12-19T19:56:44.838Z,17.77
2022-12-19T19:59:12.892Z,16.47
2022-12-19T20:01:40.967Z,17.37
2022-12-19T20:04:10.476Z,17.43
2022-12-19T20:06:38.533Z,17.80
2022-12-19T20:09:06.834Z,17.23
2022-12-19T20:11:34.841Z,17.90
2022-12-19T20:14:02.798Z,17.00
2022-12-19T20:16:30.972Z,17.20
2022-12-19T20:18:59.669Z,17.27
2022-12-19T20:21:30.681Z,16.53
2022-12-19T20:23:58.728Z,17.70
2022-12-19T20:26:26.720Z,16.67
2022-12-19T20:28:54.718Z,16.80
2022-12-19T20:31:24.978Z,15.57
2022-12-19T20:33:56.633Z,16.47
2022-12-19T20:36:25.533Z,16.00
2022-12-19T20:38:54.881Z,17.57
2022-12-19T20:41:22.997Z,16.73
2022-12-19T20:43:52.396Z,16.90
2022-12-19T20:46:22.156Z,16.87
2022-12-19T20:48:51.578Z,16.03
2022-12-19T20:51:21.176Z,16.17
2022-12-19T20:53:49.555Z,14.57
2022-12-19T20:56:19.917Z,15.10
2022-12-19T20:58:48.070Z,15.40
2022-12-19T21:01:18.307Z,14.80
2022-12-19T21:03:48.348Z,14.83
2022-12-19T21:06:19.377Z,15.50
2022-12-19T21:08:47.886Z,15.13
2022-12-19T21:11:17.035Z,15.23
2022-12-19T21:13:46.434Z,15.77
2022-12-19T21:16:16.076Z,15.87
2022-12-19T21:18:46.324Z,14.63
2022-12-19T21:21:17.294Z,14.07
2022-12-19T21:23:45.877Z,13.83
2022-12-19T21:26:14.084Z,15.43
2022-12-19T21:28:42.169Z,15.23
2022-12-19T21:31:16.539Z,15.73
2022-12-19T21:33:45.430Z,14.17
2022-12-19T21:36:16.610Z,14.57
2022-12-19T21:38:44.590Z,14.97
2022-12-19T21:41:18.633Z,14.00
2022-12-19T21:43:48.658Z,14.73
2022-12-19T21:46:19.001Z,13.43
2022-12-19T21:48:48.413Z,13.20
2022-12-19T21:51:18.597Z,14.60
2022-12-19T21:53:47.265Z,12.77
2022-12-19T21:56:23.258Z,13.97
2022-12-19T21:58:52.907Z,11.47
2022-12-19T22:01:22.877Z,13.63
2022-12-19T22:03:51.549Z,13.63
2022-12-19T22:06:27.645Z,13.43
2022-12-19T22:08:57.009Z,14.07
2022-12-19T22:11:25.658Z,13.57
2022-12-19T22:13:54.131Z,13.10
2022-12-19T22:16:23.629Z,12.70
2022-12-19T22:18:53.005Z,13.43
2022-12-19T22:21:21.447Z,11.83
2022-12-19T22:23:49.411Z,12.47
2022-12-19T22:26:19.186Z,13.27
2022-12-19T22:28:49.928Z,12.80
2022-12-19T22:31:20.238Z,12.33
2022-12-19T22:33:51.211Z,12.67
2022-12-19T22:36:25.765Z,13.30
2022-12-19T22:38:56.298Z,12.37
2022-12-19T22:41:24.317Z,13.97
2022-12-19T22:43:53.078Z,13.30
2022-12-19T22:46:23.900Z,12.40
2022-12-19T22:48:54.059Z,13.30
2022-12-19T22:51:22.038Z,12.67
2022-12-19T22:53:50.505Z,13.07
2022-12-19T22:56:24.150Z,13.63
2022-12-19T22:58:54.796Z,12.63
2022-12-19T23:01:24.693Z,12.33
2022-12-19T23:03:56.318Z,13.47
2022-12-19T23:06:25.821Z,13.17
2022-12-19T23:08:54.531Z,13.57
2022-12-19T23:11:24.450Z,12.90
2022-12-19T23:13:52.632Z,13.23
2022-12-19T23:16:20.610Z,13.33
2022-12-19T23:18:48.628Z,14.73
2022-12-19T23:21:19.636Z,13.50
2022-12-19T23:23:49.579Z,12.33
2022-12-19T23:26:20.246Z,13.07
2022-12-19T23:28:52.819Z,13.20
2022-12-19T23:31:20.984Z,13.70
2022-12-19T23:33:49.100Z,12.90
2022-12-19T23:36:38.237Z,12.73
2022-12-19T23:39:07.179Z,12.53
2022-12-19T23:41:35.184Z,13.43
2022-12-19T23:44:03.214Z,12.43
2022-12-19T23:46:31.278Z,13.07
2022-12-19T23:48:59.344Z,13.13
2022-12-19T23:51:28.981Z,13.63
2022-12-19T23:53:57.280Z,13.57
2022-12-19T23:56:26.841Z,13.03
2022-12-19T23:58:55.163Z,13.00
